sensor_id;sensor_type;location;lat;lon;timestamp;P1;durP1;ratioP1;P2;durP2;ratioP2
19940;SDS011;10132;50.864;5.176;2023-01-29T00:00:41;28.77;;;18.07;;
19940;SDS011;10132;50.864;5.176;2023-01-29T00:02:43;28.13;;;16.97;;
19940;SDS011;10132;50.864;5.176;2023-01-29T00:04:45;33.57;;;18.73;;
19940;SDS011;10132;50.864;5.176;2023-01-29T00:06:47;32.73;;;17.17;;
19940;SDS011;10132;50.864;5.176;2023-01-29T00:08:49;33.60;;;18.97;;
19940;SDS011;10132;50.864;5.176;2023-01-29T00:10:51;28.40;;;17.50;;
19940;SDS011;10132;50.864;5.176;2023-01-29T00:12:53;27.97;;;17.23;;
19940;SDS011;10132;50.864;5.176;2023-01-29T00:14:56;28.23;;;17.03;;
19940;SDS011;10132;50.864;5.176;2023-01-29T00:16:58;28.50;;;16.83;;
19940;SDS011;10132;50.864;5.176;2023-01-29T00:19:01;32.80;;;17.87;;
19940;SDS011;10132;50.864;5.176;2023-01-29T00:21:03;31.63;;;18.03;;
19940;SDS011;10132;50.864;5.176;2023-01-29T00:23:09;29.30;;;17.17;;
19940;SDS011;10132;50.864;5.176;2023-01-29T00:25:11;28.10;;;17.30;;
19940;SDS011;10132;50.864;5.176;2023-01-29T00:27:13;30.00;;;18.93;;
19940;SDS011;10132;50.864;5.176;2023-01-29T00:29:15;30.03;;;16.77;;
19940;SDS011;10132;50.864;5.176;2023-01-29T00:31:19;28.10;;;17.20;;
19940;SDS011;10132;50.864;5.176;2023-01-29T00:33:22;26.20;;;16.10;;
19940;SDS011;10132;50.864;5.176;2023-01-29T00:35:24;31.20;;;17.13;;
19940;SDS011;10132;50.864;5.176;2023-01-29T00:37:26;30.43;;;17.47;;
19940;SDS011;10132;50.864;5.176;2023-01-29T00:39:28;34.23;;;18.00;;
19940;SDS011;10132;50.864;5.176;2023-01-29T00:41:37;37.50;;;22.47;;
19940;SDS011;10132;50.864;5.176;2023-01-29T00:43:57;33.33;;;19.33;;
19940;SDS011;10132;50.864;5.176;2023-01-29T00:46:16;33.83;;;18.93;;
19940;SDS011;10132;50.864;5.176;2023-01-29T00:48:20;35.77;;;19.57;;
19940;SDS011;10132;50.864;5.176;2023-01-29T00:50:21;36.87;;;20.23;;
19940;SDS011;10132;50.864;5.176;2023-01-29T00:52:23;34.87;;;20.70;;
19940;SDS011;10132;50.864;5.176;2023-01-29T00:54:26;31.63;;;19.13;;
19940;SDS011;10132;50.864;5.176;2023-01-29T00:56:28;31.90;;;19.03;;
19940;SDS011;10132;50.864;5.176;2023-01-29T00:58:30;32.10;;;18.50;;
19940;SDS011;10132;50.864;5.176;2023-01-29T01:00:34;31.27;;;18.53;;
19940;SDS011;10132;50.864;5.176;2023-01-29T01:02:37;29.97;;;18.43;;
19940;SDS011;10132;50.864;5.176;2023-01-29T01:04:57;32.37;;;19.87;;
19940;SDS011;10132;50.864;5.176;2023-01-29T01:07:01;27.50;;;16.93;;
19940;SDS011;10132;50.864;5.176;2023-01-29T01:09:03;28.53;;;18.03;;
19940;SDS011;10132;50.864;5.176;2023-01-29T01:11:23;30.20;;;17.20;;
19940;SDS011;10132;50.864;5.176;2023-01-29T01:13:25;27.90;;;17.43;;
19940;SDS011;10132;50.864;5.176;2023-01-29T01:15:28;28.67;;;17.50;;
19940;SDS011;10132;50.864;5.176;2023-01-29T01:17:31;30.30;;;17.13;;
19940;SDS011;10132;50.864;5.176;2023-01-29T01:19:36;28.23;;;16.70;;
19940;SDS011;10132;50.864;5.176;2023-01-29T01:21:37;30.10;;;17.30;;
19940;SDS011;10132;50.864;5.176;2023-01-29T01:23:39;28.87;;;16.27;;
19940;SDS011;10132;50.864;5.176;2023-01-29T01:25:42;30.27;;;18.03;;
19940;SDS011;10132;50.864;5.176;2023-01-29T01:27:44;25.40;;;16.13;;
19940;SDS011;10132;50.864;5.176;2023-01-29T01:29:46;27.57;;;16.37;;
19940;SDS011;10132;50.864;5.176;2023-01-29T01:31:48;30.37;;;17.90;;
19940;SDS011;10132;50.864;5.176;2023-01-29T01:33:50;30.73;;;18.57;;
19940;SDS011;10132;50.864;5.176;2023-01-29T01:35:54;31.20;;;18.03;;
19940;SDS011;10132;50.864;5.176;2023-01-29T01:38:01;29.70;;;17.83;;
19940;SDS011;10132;50.864;5.176;2023-01-29T01:40:03;28.97;;;17.47;;
19940;SDS011;10132;50.864;5.176;2023-01-29T01:42:11;29.37;;;17.63;;
19940;SDS011;10132;50.864;5.176;2023-01-29T01:46:55;28.97;;;17.07;;
19940;SDS011;10132;50.864;5.176;2023-01-29T01:48:57;30.13;;;19.47;;
19940;SDS011;10132;50.864;5.176;2023-01-29T01:51:04;29.37;;;18.23;;
19940;SDS011;10132;50.864;5.176;2023-01-29T01:53:07;31.43;;;17.90;;
19940;SDS011;10132;50.864;5.176;2023-01-29T01:55:12;26.17;;;16.47;;
19940;SDS011;10132;50.864;5.176;2023-01-29T01:57:18;29.07;;;17.73;;
19940;SDS011;10132;50.864;5.176;2023-01-29T01:59:25;28.37;;;16.40;;
19940;SDS011;10132;50.864;5.176;2023-01-29T02:01:27;28.73;;;18.00;;
19940;SDS011;10132;50.864;5.176;2023-01-29T02:03:29;30.47;;;17.03;;
19940;SDS011;10132;50.864;5.176;2023-01-29T02:05:52;31.27;;;17.97;;
19940;SDS011;10132;50.864;5.176;2023-01-29T02:08:14;26.87;;;16.40;;
19940;SDS011;10132;50.864;5.176;2023-01-29T02:10:41;26.33;;;16.67;;
19940;SDS011;10132;50.864;5.176;2023-01-29T02:12:44;30.13;;;17.47;;
19940;SDS011;10132;50.864;5.176;2023-01-29T02:14:47;32.33;;;18.60;;
19940;SDS011;10132;50.864;5.176;2023-01-29T02:16:49;33.83;;;19.17;;
19940;SDS011;10132;50.864;5.176;2023-01-29T02:18:51;30.73;;;18.97;;
19940;SDS011;10132;50.864;5.176;2023-01-29T02:20:59;32.83;;;18.37;;
19940;SDS011;10132;50.864;5.176;2023-01-29T02:25:57;30.77;;;18.23;;
19940;SDS011;10132;50.864;5.176;2023-01-29T02:28:22;30.67;;;17.87;;
19940;SDS011;10132;50.864;5.176;2023-01-29T02:30:32;32.30;;;18.70;;
19940;SDS011;10132;50.864;5.176;2023-01-29T02:32:39;27.07;;;17.30;;
19940;SDS011;10132;50.864;5.176;2023-01-29T02:34:56;28.30;;;16.77;;
19940;SDS011;10132;50.864;5.176;2023-01-29T02:37:25;29.27;;;17.87;;
19940;SDS011;10132;50.864;5.176;2023-01-29T02:39:36;29.23;;;17.20;;
19940;SDS011;10132;50.864;5.176;2023-01-29T02:41:45;33.77;;;18.20;;
19940;SDS011;10132;50.864;5.176;2023-01-29T02:43:57;31.90;;;17.50;;
19940;SDS011;10132;50.864;5.176;2023-01-29T02:46:08;30.53;;;17.80;;
19940;SDS011;10132;50.864;5.176;2023-01-29T02:48:16;31.80;;;16.87;;
19940;SDS011;10132;50.864;5.176;2023-01-29T02:50:21;27.07;;;16.07;;
19940;SDS011;10132;50.864;5.176;2023-01-29T02:52:33;29.37;;;16.73;;
19940;SDS011;10132;50.864;5.176;2023-01-29T02:54:43;30.50;;;17.23;;
19940;SDS011;10132;50.864;5.176;2023-01-29T02:56:50;32.23;;;17.83;;
19940;SDS011;10132;50.864;5.176;2023-01-29T02:58:58;29.93;;;17.33;;
19940;SDS011;10132;50.864;5.176;2023-01-29T03:01:03;25.77;;;16.40;;
19940;SDS011;10132;50.864;5.176;2023-01-29T03:03:11;30.33;;;17.87;;
19940;SDS011;10132;50.864;5.176;2023-01-29T03:05:20;30.67;;;17.53;;
19940;SDS011;10132;50.864;5.176;2023-01-29T03:07:28;32.17;;;17.90;;
19940;SDS011;10132;50.864;5.176;2023-01-29T03:09:43;29.77;;;18.53;;
19940;SDS011;10132;50.864;5.176;2023-01-29T03:11:53;28.47;;;16.70;;
19940;SDS011;10132;50.864;5.176;2023-01-29T03:14:01;30.80;;;17.03;;
19940;SDS011;10132;50.864;5.176;2023-01-29T03:16:07;30.30;;;17.93;;
19940;SDS011;10132;50.864;5.176;2023-01-29T03:18:18;28.10;;;16.93;;
19940;SDS011;10132;50.864;5.176;2023-01-29T03:20:28;31.17;;;16.47;;
19940;SDS011;10132;50.864;5.176;2023-01-29T03:22:34;30.83;;;18.13;;
19940;SDS011;10132;50.864;5.176;2023-01-29T03:24:38;31.40;;;17.03;;
19940;SDS011;10132;50.864;5.176;2023-01-29T03:27:02;28.17;;;16.93;;
19940;SDS011;10132;50.864;5.176;2023-01-29T03:29:26;28.37;;;15.83;;
19940;SDS011;10132;50.864;5.176;2023-01-29T03:31:47;28.07;;;17.03;;
19940;SDS011;10132;50.864;5.176;2023-01-29T03:34:07;26.83;;;16.30;;
19940;SDS011;10132;50.864;5.176;2023-01-29T03:36:16;28.47;;;16.97;;
19940;SDS011;10132;50.864;5.176;2023-01-29T03:38:20;29.50;;;18.43;;
19940;SDS011;10132;50.864;5.176;2023-01-29T03:40:33;28.50;;;15.90;;
19940;SDS011;10132;50.864;5.176;2023-01-29T03:42:43;29.13;;;17.97;;
19940;SDS011;10132;50.864;5.176;2023-01-29T03:44:56;28.13;;;18.30;;
19940;SDS011;10132;50.864;5.176;2023-01-29T03:47:08;29.97;;;18.40;;
19940;SDS011;10132;50.864;5.176;2023-01-29T03:49:18;28.07;;;16.70;;
19940;SDS011;10132;50.864;5.176;2023-01-29T03:51:29;29.57;;;16.87;;
19940;SDS011;10132;50.864;5.176;2023-01-29T03:53:35;28.43;;;17.20;;
19940;SDS011;10132;50.864;5.176;2023-01-29T03:55:44;30.23;;;17.53;;
19940;SDS011;10132;50.864;5.176;2023-01-29T03:57:54;28.17;;;16.50;;
19940;SDS011;10132;50.864;5.176;2023-01-29T04:00:02;28.63;;;17.53;;
19940;SDS011;10132;50.864;5.176;2023-01-29T04:02:09;30.70;;;18.10;;
19940;SDS011;10132;50.864;5.176;2023-01-29T04:04:19;31.63;;;18.23;;
19940;SDS011;10132;50.864;5.176;2023-01-29T04:06:25;31.10;;;18.10;;
19940;SDS011;10132;50.864;5.176;2023-01-29T04:08:31;32.77;;;18.83;;
19940;SDS011;10132;50.864;5.176;2023-01-29T04:10:38;29.80;;;18.20;;
19940;SDS011;10132;50.864;5.176;2023-01-29T04:12:43;31.73;;;20.17;;
19940;SDS011;10132;50.864;5.176;2023-01-29T04:14:48;33.83;;;20.40;;
19940;SDS011;10132;50.864;5.176;2023-01-29T04:16:54;33.97;;;20.83;;
19940;SDS011;10132;50.864;5.176;2023-01-29T04:19:00;34.57;;;20.03;;
19940;SDS011;10132;50.864;5.176;2023-01-29T04:21:02;33.17;;;20.77;;
19940;SDS011;10132;50.864;5.176;2023-01-29T04:23:06;32.30;;;20.53;;
19940;SDS011;10132;50.864;5.176;2023-01-29T04:25:20;36.63;;;21.30;;
19940;SDS011;10132;50.864;5.176;2023-01-29T04:27:29;33.83;;;20.97;;
19940;SDS011;10132;50.864;5.176;2023-01-29T04:29:39;30.20;;;19.40;;
19940;SDS011;10132;50.864;5.176;2023-01-29T04:31:53;32.83;;;19.70;;
19940;SDS011;10132;50.864;5.176;2023-01-29T04:34:03;31.77;;;17.77;;
19940;SDS011;10132;50.864;5.176;2023-01-29T04:36:16;30.53;;;17.87;;
19940;SDS011;10132;50.864;5.176;2023-01-29T04:38:31;31.00;;;17.77;;
19940;SDS011;10132;50.864;5.176;2023-01-29T04:40:42;31.17;;;18.20;;
19940;SDS011;10132;50.864;5.176;2023-01-29T04:42:53;31.77;;;19.63;;
19940;SDS011;10132;50.864;5.176;2023-01-29T04:45:07;29.93;;;17.23;;
19940;SDS011;10132;50.864;5.176;2023-01-29T04:47:20;28.67;;;17.27;;
19940;SDS011;10132;50.864;5.176;2023-01-29T04:49:31;28.80;;;17.60;;
19940;SDS011;10132;50.864;5.176;2023-01-29T04:51:40;31.37;;;17.53;;
19940;SDS011;10132;50.864;5.176;2023-01-29T04:53:49;31.53;;;19.00;;
19940;SDS011;10132;50.864;5.176;2023-01-29T04:55:58;32.20;;;18.57;;
19940;SDS011;10132;50.864;5.176;2023-01-29T04:58:09;32.33;;;17.87;;
19940;SDS011;10132;50.864;5.176;2023-01-29T05:00:16;34.50;;;18.63;;
19940;SDS011;10132;50.864;5.176;2023-01-29T05:02:22;30.87;;;18.23;;
19940;SDS011;10132;50.864;5.176;2023-01-29T05:04:27;33.23;;;18.87;;
19940;SDS011;10132;50.864;5.176;2023-01-29T05:06:32;27.67;;;16.77;;
19940;SDS011;10132;50.864;5.176;2023-01-29T05:08:36;29.90;;;17.87;;
19940;SDS011;10132;50.864;5.176;2023-01-29T05:10:39;32.50;;;19.43;;
19940;SDS011;10132;50.864;5.176;2023-01-29T05:12:42;32.87;;;19.60;;
19940;SDS011;10132;50.864;5.176;2023-01-29T05:14:47;31.97;;;18.93;;
19940;SDS011;10132;50.864;5.176;2023-01-29T05:16:51;32.87;;;19.60;;
19940;SDS011;10132;50.864;5.176;2023-01-29T05:18:56;31.83;;;19.77;;
19940;SDS011;10132;50.864;5.176;2023-01-29T05:20:58;33.37;;;18.60;;
19940;SDS011;10132;50.864;5.176;2023-01-29T05:23:07;30.47;;;17.07;;
19940;SDS011;10132;50.864;5.176;2023-01-29T05:25:18;32.97;;;18.93;;
19940;SDS011;10132;50.864;5.176;2023-01-29T05:27:23;36.93;;;18.97;;
19940;SDS011;10132;50.864;5.176;2023-01-29T05:29:47;29.50;;;17.67;;
19940;SDS011;10132;50.864;5.176;2023-01-29T05:31:49;32.37;;;19.53;;
19940;SDS011;10132;50.864;5.176;2023-01-29T05:33:51;32.27;;;18.63;;
19940;SDS011;10132;50.864;5.176;2023-01-29T05:35:57;30.13;;;17.80;;
19940;SDS011;10132;50.864;5.176;2023-01-29T05:37:59;31.57;;;19.37;;
19940;SDS011;10132;50.864;5.176;2023-01-29T05:40:02;30.93;;;18.93;;
19940;SDS011;10132;50.864;5.176;2023-01-29T05:42:07;30.33;;;18.23;;
19940;SDS011;10132;50.864;5.176;2023-01-29T05:44:09;28.90;;;18.20;;
19940;SDS011;10132;50.864;5.176;2023-01-29T05:46:12;34.10;;;20.33;;
19940;SDS011;10132;50.864;5.176;2023-01-29T05:48:14;31.80;;;19.67;;
19940;SDS011;10132;50.864;5.176;2023-01-29T05:50:16;33.70;;;21.13;;
19940;SDS011;10132;50.864;5.176;2023-01-29T05:52:19;34.63;;;20.07;;
19940;SDS011;10132;50.864;5.176;2023-01-29T05:54:21;38.47;;;21.50;;
19940;SDS011;10132;50.864;5.176;2023-01-29T05:56:23;34.43;;;20.87;;
19940;SDS011;10132;50.864;5.176;2023-01-29T05:58:25;33.43;;;21.33;;
19940;SDS011;10132;50.864;5.176;2023-01-29T06:00:27;35.57;;;20.63;;
19940;SDS011;10132;50.864;5.176;2023-01-29T06:02:29;33.33;;;20.60;;
19940;SDS011;10132;50.864;5.176;2023-01-29T06:04:31;35.37;;;21.57;;
19940;SDS011;10132;50.864;5.176;2023-01-29T06:06:33;37.93;;;23.00;;
19940;SDS011;10132;50.864;5.176;2023-01-29T06:08:37;37.77;;;23.17;;
19940;SDS011;10132;50.864;5.176;2023-01-29T06:10:39;38.47;;;22.77;;
19940;SDS011;10132;50.864;5.176;2023-01-29T06:12:41;36.13;;;22.27;;
19940;SDS011;10132;50.864;5.176;2023-01-29T06:14:43;38.87;;;23.70;;
19940;SDS011;10132;50.864;5.176;2023-01-29T06:16:45;41.80;;;24.83;;
19940;SDS011;10132;50.864;5.176;2023-01-29T06:18:47;38.80;;;23.27;;
19940;SDS011;10132;50.864;5.176;2023-01-29T06:20:49;38.30;;;23.03;;
19940;SDS011;10132;50.864;5.176;2023-01-29T06:22:51;39.07;;;24.60;;
19940;SDS011;10132;50.864;5.176;2023-01-29T06:24:54;39.87;;;24.23;;
19940;SDS011;10132;50.864;5.176;2023-01-29T06:26:57;43.23;;;25.53;;
19940;SDS011;10132;50.864;5.176;2023-01-29T06:28:59;43.20;;;25.37;;
19940;SDS011;10132;50.864;5.176;2023-01-29T06:31:01;41.53;;;24.70;;
19940;SDS011;10132;50.864;5.176;2023-01-29T06:33:04;42.37;;;25.63;;
19940;SDS011;10132;50.864;5.176;2023-01-29T06:35:07;42.17;;;26.00;;
19940;SDS011;10132;50.864;5.176;2023-01-29T06:37:09;39.60;;;25.03;;
19940;SDS011;10132;50.864;5.176;2023-01-29T06:39:11;40.57;;;24.67;;
19940;SDS011;10132;50.864;5.176;2023-01-29T06:41:15;45.70;;;27.47;;
19940;SDS011;10132;50.864;5.176;2023-01-29T06:43:19;41.70;;;26.30;;
19940;SDS011;10132;50.864;5.176;2023-01-29T06:45:22;44.00;;;27.10;;
19940;SDS011;10132;50.864;5.176;2023-01-29T06:47:25;40.63;;;26.00;;
19940;SDS011;10132;50.864;5.176;2023-01-29T06:49:28;43.90;;;26.63;;
19940;SDS011;10132;50.864;5.176;2023-01-29T06:51:30;43.63;;;27.20;;
19940;SDS011;10132;50.864;5.176;2023-01-29T06:53:32;44.87;;;27.77;;
19940;SDS011;10132;50.864;5.176;2023-01-29T06:55:35;43.93;;;26.50;;
19940;SDS011;10132;50.864;5.176;2023-01-29T06:57:38;45.37;;;28.43;;
19940;SDS011;10132;50.864;5.176;2023-01-29T06:59:40;42.73;;;27.63;;
19940;SDS011;10132;50.864;5.176;2023-01-29T07:01:42;42.47;;;27.20;;
19940;SDS011;10132;50.864;5.176;2023-01-29T07:03:47;47.17;;;28.87;;
19940;SDS011;10132;50.864;5.176;2023-01-29T07:05:50;41.97;;;26.53;;
19940;SDS011;10132;50.864;5.176;2023-01-29T07:07:52;44.70;;;28.03;;
19940;SDS011;10132;50.864;5.176;2023-01-29T07:09:54;43.83;;;27.23;;
19940;SDS011;10132;50.864;5.176;2023-01-29T07:11:56;46.27;;;27.73;;
19940;SDS011;10132;50.864;5.176;2023-01-29T07:13:59;44.23;;;28.30;;
19940;SDS011;10132;50.864;5.176;2023-01-29T07:16:01;46.97;;;27.83;;
19940;SDS011;10132;50.864;5.176;2023-01-29T07:18:04;43.30;;;28.00;;
19940;SDS011;10132;50.864;5.176;2023-01-29T07:20:11;45.93;;;27.63;;
19940;SDS011;10132;50.864;5.176;2023-01-29T07:22:13;43.70;;;27.93;;
19940;SDS011;10132;50.864;5.176;2023-01-29T07:24:15;47.80;;;29.50;;
19940;SDS011;10132;50.864;5.176;2023-01-29T07:26:17;48.97;;;29.97;;
19940;SDS011;10132;50.864;5.176;2023-01-29T07:28:19;47.83;;;29.73;;
19940;SDS011;10132;50.864;5.176;2023-01-29T07:30:23;47.90;;;29.03;;
19940;SDS011;10132;50.864;5.176;2023-01-29T07:32:25;46.83;;;29.00;;
19940;SDS011;10132;50.864;5.176;2023-01-29T07:34:29;51.40;;;30.13;;
19940;SDS011;10132;50.864;5.176;2023-01-29T07:36:31;48.63;;;29.33;;
19940;SDS011;10132;50.864;5.176;2023-01-29T07:38:33;47.43;;;30.20;;
19940;SDS011;10132;50.864;5.176;2023-01-29T07:40:35;50.10;;;29.43;;
19940;SDS011;10132;50.864;5.176;2023-01-29T07:42:37;48.93;;;30.10;;
19940;SDS011;10132;50.864;5.176;2023-01-29T07:44:41;51.07;;;30.97;;
19940;SDS011;10132;50.864;5.176;2023-01-29T07:46:44;51.03;;;30.13;;
19940;SDS011;10132;50.864;5.176;2023-01-29T07:48:46;48.07;;;29.73;;
19940;SDS011;10132;50.864;5.176;2023-01-29T07:50:53;48.73;;;29.33;;
19940;SDS011;10132;50.864;5.176;2023-01-29T07:52:56;48.43;;;30.47;;
19940;SDS011;10132;50.864;5.176;2023-01-29T07:54:58;50.13;;;29.67;;
19940;SDS011;10132;50.864;5.176;2023-01-29T07:57:00;48.27;;;29.93;;
19940;SDS011;10132;50.864;5.176;2023-01-29T07:59:02;49.23;;;30.27;;
19940;SDS011;10132;50.864;5.176;2023-01-29T08:01:04;57.93;;;30.53;;
19940;SDS011;10132;50.864;5.176;2023-01-29T08:03:10;50.57;;;30.13;;
19940;SDS011;10132;50.864;5.176;2023-01-29T08:05:13;48.70;;;29.83;;
19940;SDS011;10132;50.864;5.176;2023-01-29T08:07:15;48.30;;;28.57;;
19940;SDS011;10132;50.864;5.176;2023-01-29T08:09:17;54.00;;;30.87;;
19940;SDS011;10132;50.864;5.176;2023-01-29T08:11:19;50.43;;;30.40;;
19940;SDS011;10132;50.864;5.176;2023-01-29T08:13:21;50.57;;;30.13;;
19940;SDS011;10132;50.864;5.176;2023-01-29T08:15:23;47.77;;;29.10;;
19940;SDS011;10132;50.864;5.176;2023-01-29T08:17:25;55.63;;;30.83;;
19940;SDS011;10132;50.864;5.176;2023-01-29T08:19:28;52.33;;;30.57;;
19940;SDS011;10132;50.864;5.176;2023-01-29T08:21:30;54.10;;;30.97;;
19940;SDS011;10132;50.864;5.176;2023-01-29T08:23:32;49.53;;;30.70;;
19940;SDS011;10132;50.864;5.176;2023-01-29T08:25:34;51.47;;;30.70;;
19940;SDS011;10132;50.864;5.176;2023-01-29T08:27:36;56.57;;;32.33;;
19940;SDS011;10132;50.864;5.176;2023-01-29T08:29:39;60.63;;;33.70;;
19940;SDS011;10132;50.864;5.176;2023-01-29T08:31:41;57.90;;;34.63;;
19940;SDS011;10132;50.864;5.176;2023-01-29T08:33:42;54.67;;;32.90;;
19940;SDS011;10132;50.864;5.176;2023-01-29T08:35:48;56.50;;;31.53;;
19940;SDS011;10132;50.864;5.176;2023-01-29T08:37:51;57.10;;;32.17;;
19940;SDS011;10132;50.864;5.176;2023-01-29T08:39:54;54.60;;;32.20;;
19940;SDS011;10132;50.864;5.176;2023-01-29T08:41:56;52.00;;;31.17;;
19940;SDS011;10132;50.864;5.176;2023-01-29T08:43:58;50.10;;;30.30;;
19940;SDS011;10132;50.864;5.176;2023-01-29T08:46:02;53.10;;;30.57;;
19940;SDS011;10132;50.864;5.176;2023-01-29T08:48:05;52.80;;;29.87;;
19940;SDS011;10132;50.864;5.176;2023-01-29T08:50:07;49.93;;;28.83;;
19940;SDS011;10132;50.864;5.176;2023-01-29T08:52:11;53.93;;;30.93;;
19940;SDS011;10132;50.864;5.176;2023-01-29T08:54:13;54.17;;;31.67;;
19940;SDS011;10132;50.864;5.176;2023-01-29T08:56:15;50.47;;;29.43;;
19940;SDS011;10132;50.864;5.176;2023-01-29T08:58:18;47.77;;;28.97;;
19940;SDS011;10132;50.864;5.176;2023-01-29T09:00:20;49.73;;;29.40;;
19940;SDS011;10132;50.864;5.176;2023-01-29T09:02:22;50.13;;;29.27;;
19940;SDS011;10132;50.864;5.176;2023-01-29T09:04:24;49.50;;;29.07;;
19940;SDS011;10132;50.864;5.176;2023-01-29T09:06:26;48.80;;;29.53;;
19940;SDS011;10132;50.864;5.176;2023-01-29T09:08:29;47.33;;;28.70;;
19940;SDS011;10132;50.864;5.176;2023-01-29T09:10:31;49.23;;;30.23;;
19940;SDS011;10132;50.864;5.176;2023-01-29T09:12:33;48.07;;;29.00;;
19940;SDS011;10132;50.864;5.176;2023-01-29T09:14:35;49.33;;;29.63;;
19940;SDS011;10132;50.864;5.176;2023-01-29T09:16:37;48.73;;;28.93;;
19940;SDS011;10132;50.864;5.176;2023-01-29T09:18:39;46.63;;;28.50;;
19940;SDS011;10132;50.864;5.176;2023-01-29T09:20:41;46.63;;;27.43;;
19940;SDS011;10132;50.864;5.176;2023-01-29T09:22:43;47.87;;;28.37;;
19940;SDS011;10132;50.864;5.176;2023-01-29T09:24:47;51.70;;;29.73;;
19940;SDS011;10132;50.864;5.176;2023-01-29T09:26:49;46.63;;;28.43;;
19940;SDS011;10132;50.864;5.176;2023-01-29T09:28:51;43.43;;;27.93;;
19940;SDS011;10132;50.864;5.176;2023-01-29T09:30:53;46.23;;;27.50;;
19940;SDS011;10132;50.864;5.176;2023-01-29T09:32:55;49.70;;;28.93;;
19940;SDS011;10132;50.864;5.176;2023-01-29T09:34:56;49.20;;;28.67;;
19940;SDS011;10132;50.864;5.176;2023-01-29T09:36:58;48.13;;;28.40;;
19940;SDS011;10132;50.864;5.176;2023-01-29T09:39:00;44.23;;;26.67;;
19940;SDS011;10132;50.864;5.176;2023-01-29T09:41:07;48.27;;;27.47;;
19940;SDS011;10132;50.864;5.176;2023-01-29T09:43:23;42.83;;;27.33;;
19940;SDS011;10132;50.864;5.176;2023-01-29T09:45:33;46.67;;;28.93;;
19940;SDS011;10132;50.864;5.176;2023-01-29T09:47:39;51.67;;;28.90;;
19940;SDS011;10132;50.864;5.176;2023-01-29T09:49:44;46.73;;;27.93;;
19940;SDS011;10132;50.864;5.176;2023-01-29T09:51:50;45.40;;;27.03;;
19940;SDS011;10132;50.864;5.176;2023-01-29T09:53:58;45.53;;;27.73;;
19940;SDS011;10132;50.864;5.176;2023-01-29T09:56:11;45.50;;;27.97;;
19940;SDS011;10132;50.864;5.176;2023-01-29T09:58:17;44.50;;;27.37;;
19940;SDS011;10132;50.864;5.176;2023-01-29T10:00:24;48.07;;;27.17;;
19940;SDS011;10132;50.864;5.176;2023-01-29T10:05:11;45.90;;;27.73;;
19940;SDS011;10132;50.864;5.176;2023-01-29T10:07:40;45.93;;;25.97;;
19940;SDS011;10132;50.864;5.176;2023-01-29T10:10:03;44.20;;;27.20;;
19940;SDS011;10132;50.864;5.176;2023-01-29T10:12:27;46.00;;;27.03;;
19940;SDS011;10132;50.864;5.176;2023-01-29T10:14:38;44.10;;;27.03;;
19940;SDS011;10132;50.864;5.176;2023-01-29T10:16:49;48.73;;;28.27;;
19940;SDS011;10132;50.864;5.176;2023-01-29T10:19:07;44.13;;;27.70;;
19940;SDS011;10132;50.864;5.176;2023-01-29T10:23:45;45.20;;;26.00;;
19940;SDS011;10132;50.864;5.176;2023-01-29T10:25:50;44.63;;;28.23;;
19940;SDS011;10132;50.864;5.176;2023-01-29T10:27:55;44.37;;;26.07;;
19940;SDS011;10132;50.864;5.176;2023-01-29T10:29:59;47.23;;;28.37;;
19940;SDS011;10132;50.864;5.176;2023-01-29T10:32:10;47.20;;;28.10;;
19940;SDS011;10132;50.864;5.176;2023-01-29T10:34:18;46.77;;;27.53;;
19940;SDS011;10132;50.864;5.176;2023-01-29T10:36:27;48.77;;;27.90;;
19940;SDS011;10132;50.864;5.176;2023-01-29T10:38:37;46.60;;;28.80;;
19940;SDS011;10132;50.864;5.176;2023-01-29T10:40:44;41.07;;;25.17;;
19940;SDS011;10132;50.864;5.176;2023-01-29T10:42:52;42.97;;;26.37;;
19940;SDS011;10132;50.864;5.176;2023-01-29T10:45:05;46.63;;;26.97;;
19940;SDS011;10132;50.864;5.176;2023-01-29T10:47:22;45.37;;;27.87;;
19940;SDS011;10132;50.864;5.176;2023-01-29T10:49:56;44.13;;;26.93;;
19940;SDS011;10132;50.864;5.176;2023-01-29T10:52:16;41.43;;;26.87;;
19940;SDS011;10132;50.864;5.176;2023-01-29T10:54:33;43.60;;;25.13;;
19940;SDS011;10132;50.864;5.176;2023-01-29T10:56:50;43.77;;;24.83;;
19940;SDS011;10132;50.864;5.176;2023-01-29T10:59:02;40.17;;;24.77;;
19940;SDS011;10132;50.864;5.176;2023-01-29T11:01:08;43.90;;;26.30;;
19940;SDS011;10132;50.864;5.176;2023-01-29T11:03:12;42.70;;;26.07;;
19940;SDS011;10132;50.864;5.176;2023-01-29T11:05:18;42.30;;;26.07;;
19940;SDS011;10132;50.864;5.176;2023-01-29T11:07:25;40.10;;;25.33;;
19940;SDS011;10132;50.864;5.176;2023-01-29T11:09:31;42.97;;;26.50;;
19940;SDS011;10132;50.864;5.176;2023-01-29T11:11:38;41.23;;;25.90;;
19940;SDS011;10132;50.864;5.176;2023-01-29T11:13:48;43.27;;;25.97;;
19940;SDS011;10132;50.864;5.176;2023-01-29T11:15:55;42.00;;;25.87;;
19940;SDS011;10132;50.864;5.176;2023-01-29T11:18:00;41.30;;;25.70;;
19940;SDS011;10132;50.864;5.176;2023-01-29T11:20:14;41.77;;;25.77;;
19940;SDS011;10132;50.864;5.176;2023-01-29T11:22:28;42.57;;;27.13;;
19940;SDS011;10132;50.864;5.176;2023-01-29T11:24:30;40.73;;;25.43;;
19940;SDS011;10132;50.864;5.176;2023-01-29T11:26:32;43.57;;;26.73;;
19940;SDS011;10132;50.864;5.176;2023-01-29T11:28:38;39.87;;;24.20;;
19940;SDS011;10132;50.864;5.176;2023-01-29T11:30:41;38.83;;;25.37;;
19940;SDS011;10132;50.864;5.176;2023-01-29T11:32:45;40.13;;;24.03;;
19940;SDS011;10132;50.864;5.176;2023-01-29T11:34:56;40.63;;;26.30;;
19940;SDS011;10132;50.864;5.176;2023-01-29T11:37:00;40.07;;;25.13;;
19940;SDS011;10132;50.864;5.176;2023-01-29T11:39:07;43.43;;;25.47;;
19940;SDS011;10132;50.864;5.176;2023-01-29T11:41:14;41.47;;;24.63;;
19940;SDS011;10132;50.864;5.176;2023-01-29T11:43:22;41.73;;;25.77;;
19940;SDS011;10132;50.864;5.176;2023-01-29T11:45:29;42.23;;;26.13;;
19940;SDS011;10132;50.864;5.176;2023-01-29T11:47:33;41.30;;;25.77;;
19940;SDS011;10132;50.864;5.176;2023-01-29T11:49:37;43.03;;;26.97;;
19940;SDS011;10132;50.864;5.176;2023-01-29T11:51:40;43.00;;;25.47;;
19940;SDS011;10132;50.864;5.176;2023-01-29T11:53:43;44.53;;;27.20;;
19940;SDS011;10132;50.864;5.176;2023-01-29T11:55:49;42.37;;;26.60;;
19940;SDS011;10132;50.864;5.176;2023-01-29T11:57:51;43.13;;;27.67;;
19940;SDS011;10132;50.864;5.176;2023-01-29T12:00:00;43.57;;;27.53;;
19940;SDS011;10132;50.864;5.176;2023-01-29T12:02:11;43.57;;;26.87;;
19940;SDS011;10132;50.864;5.176;2023-01-29T12:04:29;41.10;;;24.43;;
19940;SDS011;10132;50.864;5.176;2023-01-29T12:06:34;38.73;;;25.23;;
19940;SDS011;10132;50.864;5.176;2023-01-29T12:08:38;43.40;;;25.77;;
19940;SDS011;10132;50.864;5.176;2023-01-29T12:10:40;43.13;;;26.53;;
19940;SDS011;10132;50.864;5.176;2023-01-29T12:12:43;44.20;;;27.70;;
19940;SDS011;10132;50.864;5.176;2023-01-29T12:14:45;43.53;;;26.50;;
19940;SDS011;10132;50.864;5.176;2023-01-29T12:16:49;40.03;;;24.37;;
19940;SDS011;10132;50.864;5.176;2023-01-29T12:18:55;42.93;;;26.80;;
19940;SDS011;10132;50.864;5.176;2023-01-29T12:21:03;41.70;;;25.20;;
19940;SDS011;10132;50.864;5.176;2023-01-29T12:23:13;43.40;;;26.57;;
19940;SDS011;10132;50.864;5.176;2023-01-29T12:25:28;39.40;;;26.33;;
19940;SDS011;10132;50.864;5.176;2023-01-29T12:27:40;38.47;;;26.00;;